createdAt,value
2018-06-04T00:02:10.990Z,96.80
2018-06-04T00:07:06.154Z,97.00
2018-06-04T00:09:34.755Z,97.00
2018-06-04T00:12:02.320Z,97.00
2018-06-04T00:14:29.903Z,97.10
2018-06-04T00:16:57.451Z,97.10
2018-06-04T00:19:25.010Z,96.80
2018-06-04T00:21:52.570Z,97.20
2018-06-04T00:24:20.106Z,97.20
2018-06-04T00:26:47.658Z,97.20
2018-06-04T00:29:15.220Z,97.30
2018-06-04T00:31:42.783Z,97.30
2018-06-04T00:34:10.334Z,97.30
2018-06-04T00:36:37.878Z,97.30
2018-06-04T00:39:07.775Z,97.40
2018-06-04T00:41:35.683Z,97.40
2018-06-04T00:44:03.238Z,97.40
2018-06-04T00:46:30.911Z,97.40
2018-06-04T00:48:58.461Z,97.40
2018-06-04T00:51:26.001Z,97.30
2018-06-04T00:53:53.529Z,97.30
2018-06-04T00:56:22.586Z,97.30
2018-06-04T00:58:50.134Z,97.40
2018-06-04T01:01:17.727Z,97.50
2018-06-04T01:03:45.283Z,97.50
2018-06-04T01:06:12.850Z,97.60
2018-06-04T01:08:40.389Z,97.60
2018-06-04T01:11:09.051Z,97.70
2018-06-04T01:13:36.603Z,97.70
2018-06-04T01:16:04.196Z,97.70
2018-06-04T01:18:31.754Z,97.70
2018-06-04T01:20:59.315Z,97.80
2018-06-04T01:23:26.845Z,97.80
2018-06-04T01:25:54.397Z,97.80
2018-06-04T01:28:21.939Z,97.80
2018-06-04T01:30:49.498Z,97.80
2018-06-04T01:33:17.061Z,97.90
2018-06-04T01:35:44.634Z,97.90
2018-06-04T01:40:39.803Z,97.90
2018-06-04T01:43:07.361Z,97.90
2018-06-04T01:45:34.996Z,98.00
2018-06-04T01:48:02.560Z,98.00
2018-06-04T01:50:30.106Z,98.10
2018-06-04T01:52:57.670Z,98.20
2018-06-04T01:55:25.227Z,98.20
2018-06-04T01:57:52.786Z,98.20
2018-06-04T02:00:20.345Z,98.30
2018-06-04T02:02:47.897Z,98.40
2018-06-04T02:05:15.453Z,98.40
2018-06-04T02:07:43.009Z,98.40
2018-06-04T02:10:10.552Z,98.40
2018-06-04T02:12:38.107Z,98.30
2018-06-04T02:15:05.677Z,98.20
2018-06-04T02:17:33.233Z,98.10
2018-06-04T02:20:00.783Z,98.10
2018-06-04T02:22:28.325Z,98.30
2018-06-04T02:24:55.870Z,97.90
2018-06-04T02:27:23.422Z,97.90
2018-06-04T02:29:50.982Z,97.90
2018-06-04T02:32:18.569Z,97.90
2018-06-04T02:34:46.130Z,98.00
2018-06-04T02:37:13.709Z,98.00
2018-06-04T02:39:41.266Z,98.00
2018-06-04T02:42:08.825Z,98.10
2018-06-04T02:44:36.385Z,98.20
2018-06-04T02:47:04.119Z,98.30
2018-06-04T02:49:31.670Z,98.30
2018-06-04T02:51:59.219Z,98.30
2018-06-04T02:54:26.774Z,98.40
2018-06-04T02:56:54.325Z,98.40
2018-06-04T02:59:21.887Z,98.40
2018-06-04T03:01:49.459Z,98.40
2018-06-04T03:04:17.038Z,98.30
2018-06-04T03:06:44.587Z,98.30
2018-06-04T03:09:12.159Z,98.30
2018-06-04T03:11:39.724Z,98.40
2018-06-04T03:14:07.274Z,98.30
2018-06-04T03:16:34.839Z,98.30
2018-06-04T03:19:02.415Z,98.30
2018-06-04T03:21:29.957Z,98.30
2018-06-04T03:23:57.520Z,98.40
2018-06-04T03:26:25.058Z,98.40
2018-06-04T03:28:52.638Z,98.40
2018-06-04T03:31:20.198Z,98.40
2018-06-04T03:33:47.753Z,98.40
2018-06-04T03:36:15.289Z,98.40
2018-06-04T03:38:42.845Z,98.30
2018-06-04T03:41:10.393Z,98.20
2018-06-04T03:43:37.949Z,98.20
2018-06-04T03:46:05.501Z,98.10
2018-06-04T03:48:33.072Z,98.10
2018-06-04T03:51:00.622Z,98.20
2018-06-04T03:55:55.762Z,98.30
2018-06-04T03:58:23.309Z,98.20
2018-06-04T04:00:50.878Z,98.20
2018-06-04T04:05:46.062Z,98.10
2018-06-04T04:08:13.621Z,98.10
2018-06-04T04:10:41.170Z,98.10
2018-06-04T04:13:08.721Z,98.00
2018-06-04T04:15:36.281Z,98.00
2018-06-04T04:18:03.826Z,97.90
2018-06-04T04:20:31.363Z,97.90
2018-06-04T04:22:58.897Z,97.80
2018-06-04T04:25:26.482Z,97.70
2018-06-04T04:30:21.643Z,97.40
2018-06-04T04:32:49.181Z,97.30
2018-06-04T04:35:16.733Z,97.20
2018-06-04T04:37:44.278Z,97.20
2018-06-04T04:40:11.842Z,97.20
2018-06-04T04:42:39.406Z,97.10
2018-06-04T04:45:06.969Z,96.90
2018-06-04T04:47:34.514Z,96.90
2018-06-04T04:50:02.098Z,96.90
2018-06-04T04:52:29.649Z,96.80
2018-06-04T04:54:57.194Z,96.60
2018-06-04T04:57:24.767Z,96.30
2018-06-04T04:59:52.339Z,96.20
2018-06-04T05:02:19.903Z,96.10
2018-06-04T05:04:47.466Z,95.00
2018-06-04T05:07:15.031Z,93.70
2018-06-04T05:09:42.569Z,92.20
2018-06-04T05:12:10.137Z,91.20
2018-06-04T05:14:37.679Z,89.70
2018-06-04T05:17:05.255Z,85.30
2018-06-04T05:19:32.799Z,81.60
2018-06-04T05:22:00.361Z,79.10
2018-06-04T05:26:55.539Z,73.70
2018-06-04T05:29:23.082Z,71.00
2018-06-04T05:31:50.663Z,69.00
2018-06-04T05:34:18.161Z,65.90
2018-06-04T05:36:45.722Z,64.10
2018-06-04T05:39:13.302Z,62.00
2018-06-04T05:41:53.947Z,59.90
2018-06-04T05:46:49.100Z,58.00
2018-06-04T05:49:16.647Z,55.60
2018-06-04T05:51:44.228Z,53.80
2018-06-04T05:54:11.837Z,52.20
2018-06-04T05:56:45.683Z,51.80
2018-06-04T05:59:13.220Z,50.90
2018-06-04T06:01:40.780Z,50.00
2018-06-04T06:04:08.330Z,49.40
2018-06-04T06:06:35.910Z,48.30
2018-06-04T06:09:07.375Z,48.10
2018-06-04T06:11:35.057Z,47.50
2018-06-04T06:14:02.904Z,47.10
2018-06-04T06:16:30.483Z,45.90
2018-06-04T06:18:58.026Z,45.00
2018-06-04T06:21:25.585Z,44.60
2018-06-04T06:23:53.141Z,44.30
2018-06-04T06:26:20.689Z,43.60
2018-06-04T06:28:48.239Z,43.40
2018-06-04T06:31:15.794Z,42.20
2018-06-04T06:33:43.330Z,42.20
2018-06-04T06:36:10.881Z,41.70
2018-06-04T06:38:38.426Z,41.30
2018-06-04T06:41:06.002Z,41.00
2018-06-04T06:43:33.555Z,40.80
2018-06-04T06:46:01.107Z,39.90
2018-06-04T06:48:28.641Z,39.80
2018-06-04T06:50:56.185Z,40.20
2018-06-04T06:53:23.732Z,40.00
2018-06-04T06:55:51.298Z,39.80
2018-06-04T06:58:18.859Z,39.50
2018-06-04T07:00:46.404Z,38.90
2018-06-04T07:03:13.966Z,38.30
2018-06-04T07:05:41.526Z,38.80
2018-06-04T07:08:09.101Z,38.70
2018-06-04T07:10:36.637Z,37.90
2018-06-04T07:13:04.201Z,38.40
2018-06-04T07:15:31.765Z,38.90
2018-06-04T07:17:59.319Z,38.40
2018-06-04T07:20:26.870Z,38.00
2018-06-04T07:22:54.422Z,38.50
2018-06-04T07:25:21.962Z,37.60
2018-06-04T07:27:49.514Z,38.40
2018-06-04T07:30:17.060Z,37.30
2018-06-04T07:32:44.602Z,37.30
2018-06-04T07:35:12.151Z,37.60
2018-06-04T07:40:08.498Z,37.70
2018-06-04T07:42:36.049Z,38.10
2018-06-04T07:45:03.659Z,38.80
2018-06-04T07:47:32.066Z,39.90
2018-06-04T07:50:00.507Z,40.30
2018-06-04T07:52:28.464Z,40.50
2018-06-04T07:54:56.054Z,40.30
2018-06-04T07:57:23.849Z,39.90
2018-06-04T07:59:51.390Z,40.80
2018-06-04T08:02:18.936Z,42.20
2018-06-04T08:04:46.461Z,43.00
2018-06-04T08:07:14.002Z,43.50
2018-06-04T08:09:41.575Z,44.20
2018-06-04T08:12:09.135Z,44.30
2018-06-04T08:14:36.689Z,44.10
2018-06-04T08:17:04.491Z,43.80
2018-06-04T08:19:32.058Z,43.10
2018-06-04T08:21:59.623Z,42.70
2018-06-04T08:24:27.163Z,42.00
2018-06-04T08:26:54.714Z,41.40
2018-06-04T08:29:22.315Z,41.00
2018-06-04T08:31:49.848Z,41.20
2018-06-04T08:34:17.390Z,41.90
2018-06-04T08:36:44.949Z,42.30
2018-06-04T08:39:12.519Z,42.10
2018-06-04T08:41:40.069Z,41.80
2018-06-04T08:44:07.670Z,41.60
2018-06-04T08:46:35.221Z,41.40
2018-06-04T08:49:02.787Z,41.00
2018-06-04T08:51:30.330Z,40.40
2018-06-04T08:53:57.902Z,40.30
2018-06-04T08:56:27.511Z,40.10
2018-06-04T08:58:55.063Z,39.80
2018-06-04T09:01:22.621Z,40.20
2018-06-04T09:03:50.141Z,40.80
2018-06-04T09:06:17.714Z,41.40
2018-06-04T09:08:45.264Z,42.00
2018-06-04T09:11:12.814Z,42.20
2018-06-04T09:13:40.361Z,42.00
2018-06-04T09:16:07.913Z,41.90
2018-06-04T09:18:35.474Z,42.70
2018-06-04T09:21:03.065Z,43.40
2018-06-04T09:23:41.311Z,43.60
2018-06-04T09:26:08.879Z,43.80
2018-06-04T09:28:36.409Z,43.50
2018-06-04T09:31:03.960Z,42.20
2018-06-04T09:33:31.507Z,40.60
2018-06-04T09:35:59.053Z,38.70
2018-06-04T09:38:26.597Z,37.90
2018-06-04T09:40:54.138Z,36.00
2018-06-04T09:43:21.678Z,36.40
2018-06-04T09:45:49.258Z,37.30
2018-06-04T09:48:16.793Z,38.00
2018-06-04T09:50:44.330Z,39.00
2018-06-04T09:53:11.900Z,39.80
2018-06-04T09:55:39.455Z,40.10
2018-06-04T09:58:07.006Z,40.60
2018-06-04T10:00:35.317Z,40.40
2018-06-04T10:03:04.718Z,39.80
2018-06-04T10:05:32.271Z,38.10
2018-06-04T10:07:59.846Z,37.40
2018-06-04T10:10:27.383Z,37.80
2018-06-04T10:12:54.923Z,37.60
2018-06-04T10:15:22.522Z,37.30
2018-06-04T10:17:50.057Z,36.40
2018-06-04T10:20:17.597Z,36.20
2018-06-04T10:22:45.154Z,36.10
2018-06-04T10:25:12.725Z,36.50
2018-06-04T10:27:40.281Z,37.20
2018-06-04T10:30:07.833Z,37.20
2018-06-04T10:32:35.386Z,38.00
2018-06-04T10:35:02.955Z,36.70
2018-06-04T10:37:30.550Z,35.40
2018-06-04T10:39:58.097Z,34.20
2018-06-04T10:42:25.650Z,34.30
2018-06-04T10:44:53.202Z,34.40
2018-06-04T10:47:20.762Z,33.80
2018-06-04T10:49:48.306Z,33.80
2018-06-04T10:52:15.856Z,34.00
2018-06-04T10:54:43.421Z,34.20
2018-06-04T10:57:10.966Z,34.90
2018-06-04T10:59:38.522Z,35.40
2018-06-04T11:02:06.078Z,36.20
2018-06-04T11:04:33.650Z,36.60
2018-06-04T11:07:01.231Z,36.50
2018-06-04T11:09:28.807Z,36.10
2018-06-04T11:11:56.360Z,35.80
2018-06-04T11:14:23.918Z,34.40
2018-06-04T11:16:51.438Z,33.70
2018-06-04T11:19:19.038Z,32.90
2018-06-04T11:21:46.582Z,33.20
2018-06-04T11:24:14.162Z,33.90
2018-06-04T11:29:09.366Z,34.80
2018-06-04T11:31:36.921Z,34.40
2018-06-04T11:34:04.663Z,33.30
2018-06-04T11:36:32.210Z,33.20
2018-06-04T11:38:59.754Z,32.40
2018-06-04T11:41:27.297Z,31.60
2018-06-04T11:43:54.907Z,31.60
2018-06-04T11:46:22.419Z,31.30
2018-06-04T11:48:49.973Z,30.60
2018-06-04T11:51:17.528Z,30.00
2018-06-04T11:53:45.074Z,30.10
2018-06-04T11:56:12.614Z,30.10
2018-06-04T11:58:40.200Z,30.20
2018-06-04T12:01:07.742Z,30.70
2018-06-04T12:03:35.285Z,30.50
2018-06-04T12:06:02.837Z,30.20
2018-06-04T12:08:30.386Z,29.90
2018-06-04T12:10:57.950Z,29.90
2018-06-04T12:13:25.497Z,29.90
2018-06-04T12:15:53.046Z,29.90
2018-06-04T12:18:20.582Z,29.60
2018-06-04T12:20:48.155Z,29.70
2018-06-04T12:23:15.701Z,29.50
2018-06-04T12:25:43.241Z,29.10
2018-06-04T12:28:10.833Z,28.70
2018-06-04T12:30:38.366Z,29.20
2018-06-04T12:33:05.926Z,29.40
2018-06-04T12:35:33.478Z,29.80
2018-06-04T12:38:01.038Z,29.30
2018-06-04T12:40:28.592Z,29.50
2018-06-04T12:42:56.149Z,29.60
2018-06-04T12:45:23.701Z,29.90
2018-06-04T12:47:51.236Z,29.50
2018-06-04T12:50:18.813Z,29.20
2018-06-04T12:52:46.332Z,29.10
2018-06-04T12:57:41.538Z,28.50
2018-06-04T13:00:09.094Z,28.70
2018-06-04T13:02:36.634Z,28.10
2018-06-04T13:05:04.206Z,28.10
2018-06-04T13:07:31.748Z,28.30
2018-06-04T13:09:59.285Z,27.90
2018-06-04T13:12:26.826Z,27.40
2018-06-04T13:14:54.345Z,27.10
2018-06-04T13:17:21.903Z,27.00
2018-06-04T13:19:49.432Z,26.70
2018-06-04T13:22:16.965Z,26.40
2018-06-04T13:24:44.502Z,26.40
2018-06-04T13:27:12.055Z,26.60
2018-06-04T13:29:39.603Z,26.90
2018-06-04T13:32:07.158Z,26.80
2018-06-04T13:34:34.685Z,27.00
2018-06-04T13:37:02.241Z,26.10
2018-06-04T13:39:29.789Z,26.00
2018-06-04T13:41:57.341Z,26.10
2018-06-04T13:44:24.865Z,26.30
2018-06-04T13:46:52.425Z,26.30
2018-06-04T13:49:19.961Z,27.10
2018-06-04T13:51:47.514Z,28.40
2018-06-04T13:54:15.069Z,29.60
2018-06-04T13:56:42.628Z,30.50
2018-06-04T13:59:10.218Z,31.40
2018-06-04T14:01:37.753Z,31.20
2018-06-04T14:04:05.317Z,31.50
2018-06-04T14:06:32.873Z,32.50
2018-06-04T14:09:00.423Z,33.50
2018-06-04T14:11:27.969Z,34.40
2018-06-04T14:13:55.504Z,34.90
2018-06-04T14:16:23.040Z,34.90
2018-06-04T14:18:50.600Z,34.30
2018-06-04T14:21:18.170Z,34.50
2018-06-04T14:23:45.709Z,35.00
2018-06-04T14:26:13.246Z,35.90
2018-06-04T14:28:40.806Z,36.80
2018-06-04T14:31:08.357Z,37.30
2018-06-04T14:33:35.934Z,37.60
2018-06-04T14:36:03.475Z,38.10
2018-06-04T14:38:31.032Z,38.60
2018-06-04T14:40:58.659Z,39.00
2018-06-04T14:43:26.202Z,39.30
2018-06-04T14:45:53.753Z,39.20
2018-06-04T14:48:21.282Z,37.70
2018-06-04T14:50:48.829Z,36.10
2018-06-04T14:53:16.376Z,35.30
2018-06-04T14:55:43.946Z,35.00
2018-06-04T14:58:11.472Z,33.70
2018-06-04T15:00:39.012Z,32.70
2018-06-04T15:03:06.558Z,31.80
2018-06-04T15:05:34.081Z,31.10
2018-06-04T15:08:01.640Z,30.10
2018-06-04T15:10:29.170Z,30.20
2018-06-04T15:12:56.718Z,30.70
2018-06-04T15:15:24.286Z,30.70
2018-06-04T15:17:51.820Z,30.90
2018-06-04T15:20:19.366Z,30.10
2018-06-04T15:22:46.952Z,30.90
2018-06-04T15:25:14.488Z,30.30
2018-06-04T15:27:42.009Z,30.40
2018-06-04T15:30:09.577Z,30.10
2018-06-04T15:32:37.167Z,30.00
2018-06-04T15:35:04.751Z,30.30
2018-06-04T15:37:32.291Z,29.90
2018-06-04T15:39:59.831Z,29.90
2018-06-04T15:42:27.369Z,30.00
2018-06-04T15:44:54.914Z,30.00
2018-06-04T15:47:22.464Z,30.00
2018-06-04T15:49:50.009Z,29.90
2018-06-04T15:52:17.549Z,29.80
2018-06-04T15:54:45.093Z,30.80
2018-06-04T15:57:12.638Z,31.40
2018-06-04T15:59:40.165Z,32.00
2018-06-04T16:02:07.706Z,32.10
2018-06-04T16:04:35.261Z,32.60
2018-06-04T16:07:02.797Z,33.00
2018-06-04T16:09:30.385Z,33.30
2018-06-04T16:11:57.906Z,33.30
2018-06-04T16:14:25.453Z,33.20
2018-06-04T16:16:53.001Z,33.20
2018-06-04T16:19:20.543Z,32.70
2018-06-04T16:21:48.060Z,32.50
2018-06-04T16:24:15.597Z,33.30
2018-06-04T16:26:43.137Z,34.10
2018-06-04T16:29:10.686Z,34.40
2018-06-04T16:31:38.225Z,34.80
2018-06-04T16:34:05.786Z,35.10
2018-06-04T16:36:33.366Z,35.30
2018-06-04T16:39:00.907Z,35.40
2018-06-04T16:41:28.449Z,35.30
2018-06-04T16:43:55.986Z,35.70
2018-06-04T16:46:23.538Z,36.10
2018-06-04T16:48:51.088Z,36.50
2018-06-04T16:51:18.658Z,36.60
2018-06-04T16:53:46.195Z,37.00
2018-06-04T16:56:13.746Z,37.30
2018-06-04T16:58:41.296Z,38.20
2018-06-04T17:01:08.847Z,38.10
2018-06-04T17:03:36.374Z,38.40
2018-06-04T17:06:03.978Z,38.70
2018-06-04T17:08:31.538Z,39.10
2018-06-04T17:10:59.080Z,39.40
2018-06-04T17:13:26.621Z,39.80
2018-06-04T17:15:54.174Z,40.20
2018-06-04T17:18:21.716Z,40.40
2018-06-04T17:20:49.279Z,40.70
2018-06-04T17:23:16.821Z,41.00
2018-06-04T17:25:44.402Z,41.40
2018-06-04T17:28:11.943Z,41.80
2018-06-04T17:30:39.497Z,41.80
2018-06-04T17:33:07.034Z,41.60
2018-06-04T17:35:34.602Z,41.40
2018-06-04T17:38:02.130Z,42.00
2018-06-04T17:40:29.684Z,41.00
2018-06-04T17:42:57.231Z,40.90
2018-06-04T17:45:24.788Z,40.20
2018-06-04T17:47:52.333Z,40.30
2018-06-04T17:50:19.885Z,40.30
2018-06-04T17:52:47.437Z,40.40
2018-06-04T17:55:14.998Z,40.40
2018-06-04T17:57:42.559Z,40.50
2018-06-04T18:00:10.170Z,40.60
2018-06-04T18:02:37.717Z,40.90
2018-06-04T18:05:05.287Z,41.20
2018-06-04T18:07:32.855Z,41.50
2018-06-04T18:10:00.386Z,41.90
2018-06-04T18:12:27.956Z,42.30
2018-06-04T18:14:55.502Z,42.90
2018-06-04T18:17:23.041Z,43.30
2018-06-04T18:19:50.577Z,44.10
2018-06-04T18:22:18.134Z,44.80
2018-06-04T18:24:45.669Z,45.30
2018-06-04T18:27:13.222Z,46.20
2018-06-04T18:29:40.771Z,46.70
2018-06-04T18:32:08.321Z,47.20
2018-06-04T18:34:35.870Z,47.70
2018-06-04T18:37:03.438Z,48.40
2018-06-04T18:39:30.981Z,48.90
2018-06-04T18:41:58.550Z,49.70
2018-06-04T18:44:26.120Z,50.10
2018-06-04T18:46:53.665Z,51.30
2018-06-04T18:49:21.227Z,51.10
2018-06-04T18:51:48.778Z,51.50
2018-06-04T18:54:16.343Z,52.00
2018-06-04T18:56:43.885Z,52.40
2018-06-04T18:59:11.441Z,52.90
2018-06-04T19:01:38.985Z,53.40
2018-06-04T19:04:06.541Z,54.00
2018-06-04T19:06:34.095Z,54.50
2018-06-04T19:09:01.789Z,54.90
2018-06-04T19:11:29.229Z,55.40
2018-06-04T19:13:56.802Z,56.00
2018-06-04T19:16:24.355Z,56.40
2018-06-04T19:19:11.179Z,56.80
2018-06-04T19:21:38.737Z,57.10
2018-06-04T19:24:06.298Z,58.10
2018-06-04T19:26:33.853Z,57.90
2018-06-04T19:29:01.432Z,58.50
2018-06-04T19:31:28.982Z,59.20
2018-06-04T19:33:56.734Z,59.50
2018-06-04T19:36:24.289Z,60.00
2018-06-04T19:38:51.825Z,60.80
2018-06-04T19:41:19.413Z,61.00
2018-06-04T19:43:46.992Z,61.30
2018-06-04T19:46:14.533Z,61.70
2018-06-04T19:48:42.069Z,62.50
2018-06-04T19:51:09.646Z,63.00
2018-06-04T19:53:37.200Z,63.60
2018-06-04T19:56:04.825Z,64.30
2018-06-04T19:58:32.394Z,65.30
2018-06-04T20:00:59.982Z,65.50
2018-06-04T20:03:27.566Z,65.80
2018-06-04T20:05:55.182Z,66.20
2018-06-04T20:08:22.766Z,67.30
2018-06-04T20:10:50.334Z,68.50
2018-06-04T20:13:17.891Z,69.50
2018-06-04T20:15:45.437Z,69.80
2018-06-04T20:18:12.964Z,69.90
2018-06-04T20:20:40.506Z,70.00
2018-06-04T20:23:08.051Z,69.60
2018-06-04T20:25:35.613Z,69.40
2018-06-04T20:28:03.170Z,69.50
2018-06-04T20:30:30.731Z,69.90
2018-06-04T20:32:58.285Z,70.20
2018-06-04T20:35:25.813Z,70.10
2018-06-04T20:37:53.405Z,70.30
2018-06-04T20:40:20.991Z,70.30
2018-06-04T20:42:48.553Z,70.50
2018-06-04T20:45:16.118Z,70.80
2018-06-04T20:47:43.657Z,71.20
2018-06-04T20:50:11.206Z,71.40
2018-06-04T20:55:53.154Z,72.00
2018-06-04T20:58:24.138Z,71.70
2018-06-04T21:01:08.138Z,71.70
2018-06-04T21:04:05.861Z,72.30
2018-06-04T21:12:35.480Z,73.60
2018-06-04T21:15:03.053Z,74.60
2018-06-04T21:20:50.688Z,74.90
2018-06-04T21:23:18.232Z,74.10
2018-06-04T21:25:45.814Z,74.10
2018-06-04T21:28:13.381Z,74.20
2018-06-04T21:30:40.940Z,74.20
2018-06-04T21:33:08.473Z,74.50
2018-06-04T21:35:36.027Z,74.60
2018-06-04T21:38:03.634Z,74.90
2018-06-04T21:40:50.485Z,75.50
2018-06-04T21:46:21.565Z,76.80
2018-06-04T21:48:49.093Z,77.10
2018-06-04T21:51:17.555Z,77.90
2018-06-04T21:53:45.145Z,78.60
2018-06-04T21:56:12.685Z,78.90
2018-06-04T21:58:40.233Z,79.90
2018-06-04T22:01:07.789Z,79.60
2018-06-04T22:03:35.322Z,80.10
2018-06-04T22:06:02.946Z,80.40
2018-06-04T22:08:30.522Z,80.90
2018-06-04T22:10:58.578Z,81.60
2018-06-04T22:13:26.146Z,81.40
2018-06-04T22:15:53.714Z,81.40
2018-06-04T22:18:21.273Z,81.60
2018-06-04T22:20:48.850Z,82.50
2018-06-04T22:23:16.436Z,83.20
2018-06-04T22:25:43.982Z,84.30
2018-06-04T22:28:11.541Z,83.90
2018-06-04T22:30:39.100Z,84.20
2018-06-04T22:33:06.657Z,84.50
2018-06-04T22:35:34.192Z,84.70
2018-06-04T22:38:01.742Z,85.20
2018-06-04T22:40:29.285Z,85.50
2018-06-04T22:42:56.834Z,85.60
2018-06-04T22:45:24.385Z,85.90
2018-06-04T22:47:51.964Z,86.50
2018-06-04T22:50:19.515Z,87.10
2018-06-04T22:52:47.073Z,87.40
2018-06-04T22:55:14.626Z,87.50
2018-06-04T22:57:42.217Z,87.50
2018-06-04T23:00:13.710Z,87.80
2018-06-04T23:02:41.253Z,88.00
2018-06-04T23:05:08.805Z,88.20
2018-06-04T23:07:36.381Z,88.20
2018-06-04T23:10:03.948Z,88.40
2018-06-04T23:12:31.514Z,88.40
2018-06-04T23:14:59.050Z,88.30
2018-06-04T23:17:27.390Z,88.40
2018-06-04T23:19:54.921Z,88.40
2018-06-04T23:22:22.461Z,88.40
2018-06-04T23:24:50.014Z,88.20
2018-06-04T23:27:17.562Z,88.20
2018-06-04T23:29:45.117Z,88.30
2018-06-04T23:32:12.656Z,88.60
2018-06-04T23:34:40.250Z,88.70
2018-06-04T23:37:07.784Z,88.50
2018-06-04T23:39:35.324Z,88.60
2018-06-04T23:42:02.881Z,88.70
2018-06-04T23:44:30.441Z,88.80
2018-06-04T23:46:57.978Z,88.90
2018-06-04T23:49:25.546Z,89.20
2018-06-04T23:51:53.705Z,90.10
2018-06-04T23:54:21.253Z,90.00
2018-06-04T23:56:48.790Z,90.20
2018-06-04T23:59:16.329Z,90.30
